Time;durP1;ratioP1;P1;durP2;ratioP2;P2;SDS_P1;SDS_P2;PMS_P1;PMS_P2;Temp;Humidity;BMP_temperature;BMP_pressure;BME280_temperature;BME280_humidity;BME280_pressure;Samples;Min_cycle;Max_cycle;Signal;HPM_P1;HPM_P2
2022/07/27 00:00:26;;;;;;;1.17;0.65;;;13.60;99.90;;;;;;5072913;28;20036;-64
2022/07/27 00:02:52;;;;;;;2.20;0.65;;;13.70;99.90;;;;;;5074076;28;20484;-64
2022/07/27 00:05:21;;;;;;;0.45;0.40;;;13.70;99.90;;;;;;5074007;28;20041;-64
2022/07/27 00:07:47;;;;;;;1.40;0.65;;;13.80;99.90;;;;;;5072489;28;20122;-64
2022/07/27 00:10:13;;;;;;;3.00;0.60;;;13.70;99.90;;;;;;5073479;28;20052;-64
2022/07/27 00:12:39;;;;;;;0.55;0.38;;;13.90;99.90;;;;;;5073617;28;20075;-64
2022/07/27 00:15:06;;;;;;;1.13;0.63;;;13.90;99.90;;;;;;5073644;28;20083;-64
2022/07/27 00:17:32;;;;;;;0.75;0.40;;;14.00;99.90;;;;;;5073442;28;20082;-64
2022/07/27 00:19:57;;;;;;;0.40;0.40;;;14.10;99.90;;;;;;5073787;28;20422;-64
2022/07/27 00:22:23;;;;;;;0.43;0.35;;;14.70;99.90;;;;;;5073603;28;20499;-64
2022/07/27 00:24:49;;;;;;;0.75;0.45;;;14.20;99.90;;;;;;5073666;28;20068;-64
2022/07/27 00:27:15;;;;;;;0.10;0.10;;;14.20;99.90;;;;;;5073627;28;20051;-64
2022/07/27 00:29:41;;;;;;;0.30;0.30;;;14.30;99.90;;;;;;5073617;28;20399;-64
2022/07/27 00:32:08;;;;;;;4.88;0.50;;;14.30;99.90;;;;;;5073455;28;20044;-64
2022/07/27 00:34:34;;;;;;;1.05;0.40;;;14.30;99.90;;;;;;5073216;28;20041;-64
2022/07/27 00:37:00;;;;;;;1.33;0.30;;;14.30;99.90;;;;;;5073466;28;20047;-64
2022/07/27 00:39:25;;;;;;;0.57;0.50;;;14.30;99.90;;;;;;5073467;28;20362;-64
2022/07/27 00:41:51;;;;;;;0.30;0.30;;;14.60;99.90;;;;;;5073466;28;20174;-64
2022/07/27 00:44:28;;;;;;;1.55;0.60;;;14.30;99.90;;;;;;5073435;28;20480;-64
2022/07/27 00:46:55;;;;;;;2.47;0.65;;;14.30;99.90;;;;;;5073335;28;20135;-64
2022/07/27 00:49:21;;;;;;;1.38;0.30;;;14.30;99.90;;;;;;5073019;28;20115;-64
2022/07/27 00:51:48;;;;;;;0.30;0.30;;;14.20;99.90;;;;;;5073268;28;20421;-64
2022/07/27 00:54:15;;;;;;;0.50;0.35;;;14.20;99.90;;;;;;5072896;28;20124;-64
2022/07/27 00:56:41;;;;;;;0.65;0.38;;;14.20;99.90;;;;;;5073260;28;20496;-64
2022/07/27 00:59:09;;;;;;;1.02;0.30;;;14.40;99.90;;;;;;5073180;28;20480;-64
2022/07/27 01:01:34;;;;;;;0.88;0.68;;;14.10;99.90;;;;;;5073215;28;20444;-64
2022/07/27 01:04:00;;;;;;;1.55;0.55;;;14.00;99.90;;;;;;5071605;28;20079;-64
2022/07/27 01:06:27;;;;;;;2.92;0.43;;;14.00;99.90;;;;;;5071732;28;20087;-64
2022/07/27 01:09:55;;;;;;;1.40;0.55;;;14.00;99.90;;;;;;5073098;28;20085;-64
2022/07/27 01:11:38;;;;;;;1.27;0.70;;;13.90;99.90;;;;;;5071316;28;20500;-64
2022/07/27 01:14:06;;;;;;;1.55;0.47;;;14.20;99.90;;;;;;5073073;28;20115;-64
2022/07/27 01:16:32;;;;;;;0.30;0.30;;;13.90;99.90;;;;;;5073078;28;20037;-64
2022/07/27 01:18:58;;;;;;;4.95;0.65;;;14.10;99.90;;;;;;5072706;28;20075;-64
2022/07/27 01:21:23;;;;;;;0.45;0.35;;;13.80;99.90;;;;;;5071458;28;20083;-64
2022/07/27 01:23:49;;;;;;;0.50;0.50;;;13.80;99.90;;;;;;5072972;28;20179;-64
2022/07/27 01:26:15;;;;;;;1.38;0.40;;;13.80;99.90;;;;;;5072573;28;20404;-64
2022/07/27 01:28:45;;;;;;;2.95;0.70;;;13.70;99.90;;;;;;5072958;28;20051;-64
2022/07/27 01:31:10;;;;;;;2.60;0.80;;;13.70;99.90;;;;;;5072515;28;20040;-64
2022/07/27 01:33:36;;;;;;;1.77;0.52;;;13.70;99.90;;;;;;5072882;28;20041;-64
2022/07/27 01:36:02;;;;;;;0.82;0.50;;;13.60;99.90;;;;;;5072540;28;20396;-64
2022/07/27 01:38:28;;;;;;;0.75;0.50;;;13.60;99.90;;;;;;5071306;28;20133;-64
2022/07/27 01:40:54;;;;;;;0.77;0.47;;;13.60;99.90;;;;;;5072818;28;20036;-64
2022/07/27 01:43:20;;;;;;;2.00;0.70;;;13.60;99.90;;;;;;5071483;28;20571;-64
2022/07/27 01:45:46;;;;;;;0.73;0.65;;;14.40;99.90;;;;;;5072724;28;20036;-64
2022/07/27 01:48:12;;;;;;;1.42;0.60;;;13.50;99.90;;;;;;5072764;28;20041;-64
2022/07/27 01:50:38;;;;;;;1.23;0.40;;;13.50;99.90;;;;;;5072683;28;20048;-64
2022/07/27 01:53:04;;;;;;;2.92;0.60;;;13.40;99.90;;;;;;5072748;28;20447;-64
2022/07/27 01:55:30;;;;;;;1.77;0.60;;;13.40;99.90;;;;;;5072679;28;20119;-64
2022/07/27 01:57:56;;;;;;;1.92;0.60;;;13.30;99.90;;;;;;5072410;28;20091;-64
2022/07/27 02:00:22;;;;;;;2.13;0.60;;;13.30;99.90;;;;;;5072582;28;20045;-64
2022/07/27 02:02:47;;;;;;;1.27;0.30;;;13.20;99.90;;;;;;5072634;28;20064;-64
2022/07/27 02:05:13;;;;;;;0.77;0.40;;;13.20;99.90;;;;;;5072513;28;20032;-64
2022/07/27 02:07:40;;;;;;;1.65;0.50;;;13.10;99.90;;;;;;5072298;28;20036;-64
2022/07/27 02:10:06;;;;;;;0.47;0.40;;;13.10;99.90;;;;;;5072113;28;20116;-64
2022/07/27 02:12:35;;;;;;;0.95;0.50;;;13.10;99.90;;;;;;5072162;28;20049;-64
2022/07/27 02:15:22;;;;;;;0.90;0.57;;;13.00;99.90;;;;;;5072513;28;20515;-64
2022/07/27 02:17:48;;;;;;;0.90;0.60;;;13.00;99.90;;;;;;5072523;28;20040;-64
2022/07/27 02:20:17;;;;;;;0.98;0.47;;;12.90;99.90;;;;;;5075683;28;20036;-64
2022/07/27 02:22:44;;;;;;;1.10;0.68;;;12.90;99.90;;;;;;5076032;28;20036;-64
2022/07/27 02:25:11;;;;;;;0.77;0.50;;;12.90;99.90;;;;;;5075681;28;20046;-64
2022/07/27 02:27:38;;;;;;;0.80;0.65;;;12.80;99.90;;;;;;5075630;28;20115;-64
2022/07/27 02:30:05;;;;;;;1.65;0.60;;;12.70;99.90;;;;;;5075942;28;20032;-64
2022/07/27 02:32:30;;;;;;;0.50;0.50;;;12.80;99.90;;;;;;5074209;28;20094;-64
2022/07/27 02:34:56;;;;;;;1.52;1.00;;;12.80;99.90;;;;;;5075735;28;20041;-64
2022/07/27 02:37:22;;;;;;;2.80;0.85;;;12.80;99.90;;;;;;5075759;28;20529;-64
2022/07/27 02:39:48;;;;;;;3.72;0.60;;;12.70;99.90;;;;;;5075768;28;20385;-64
2022/07/27 02:42:14;;;;;;;1.10;0.55;;;12.70;99.90;;;;;;5075336;28;20036;-64
2022/07/27 02:44:39;;;;;;;0.60;0.50;;;13.30;99.90;;;;;;5075276;28;20044;-64
2022/07/27 02:47:05;;;;;;;0.95;0.60;;;12.70;99.90;;;;;;5075625;28;20115;-64
2022/07/27 02:49:31;;;;;;;1.52;0.70;;;12.70;99.90;;;;;;5075279;28;20475;-64
2022/07/27 02:51:56;;;;;;;2.53;0.82;;;12.70;99.90;;;;;;5075463;28;20120;-64
2022/07/27 02:54:24;;;;;;;2.63;0.98;;;12.70;99.90;;;;;;5075241;28;20426;-64
2022/07/27 02:56:55;;;;;;;0.73;0.45;;;12.70;99.90;;;;;;5074165;28;20519;-64
2022/07/27 02:59:21;;;;;;;1.80;0.60;;;12.60;99.90;;;;;;5075334;28;20072;-64
2022/07/27 03:01:48;;;;;;;0.47;0.40;;;12.60;99.90;;;;;;5075345;28;20059;-64
2022/07/27 03:04:14;;;;;;;0.85;0.68;;;12.60;99.90;;;;;;5075255;28;20119;-64
2022/07/27 03:06:40;;;;;;;1.05;0.57;;;12.60;99.90;;;;;;5074054;28;20074;-64
2022/07/27 03:09:07;;;;;;;1.58;0.70;;;12.70;99.90;;;;;;5074886;28;20040;-64
2022/07/27 03:11:32;;;;;;;1.60;0.80;;;12.60;99.90;;;;;;5074721;28;20560;-64
2022/07/27 03:13:58;;;;;;;1.50;0.63;;;12.50;99.90;;;;;;5075124;28;20038;-64
2022/07/27 03:16:24;;;;;;;1.95;0.90;;;12.50;99.90;;;;;;5073492;28;20076;-64
2022/07/27 03:18:49;;;;;;;1.10;0.55;;;12.50;99.90;;;;;;5074988;28;20051;-64
2022/07/27 03:21:15;;;;;;;2.38;0.70;;;12.50;99.90;;;;;;5073464;28;20454;-64
2022/07/27 03:23:41;;;;;;;1.00;0.47;;;12.50;99.90;;;;;;5074881;28;20044;-64
2022/07/27 03:26:07;;;;;;;1.65;0.70;;;12.40;99.90;;;;;;5074879;28;20399;-64
2022/07/27 03:28:32;;;;;;;2.05;0.47;;;12.40;99.90;;;;;;5074413;28;20048;-64
2022/07/27 03:30:58;;;;;;;0.95;0.70;;;12.40;99.90;;;;;;5074347;28;20051;-64
2022/07/27 03:33:24;;;;;;;1.10;0.50;;;12.70;99.90;;;;;;5074344;28;20123;-64
2022/07/27 03:35:50;;;;;;;3.28;0.70;;;12.50;99.90;;;;;;5073418;28;20041;-64
2022/07/27 03:38:16;;;;;;;1.23;0.70;;;12.50;99.90;;;;;;5074410;28;20041;-64
2022/07/27 03:40:42;;;;;;;5.63;0.85;;;12.60;99.90;;;;;;5073274;28;20123;-64
2022/07/27 03:43:08;;;;;;;7.28;0.75;;;12.60;99.90;;;;;;5074534;28;20464;-64
2022/07/27 03:45:34;;;;;;;1.13;0.52;;;12.60;99.90;;;;;;5074396;28;20077;-64
2022/07/27 03:47:59;;;;;;;1.17;0.70;;;12.60;99.90;;;;;;5074404;28;20070;-64
2022/07/27 03:50:25;;;;;;;0.60;0.60;;;12.70;99.90;;;;;;5073977;28;20037;-64
2022/07/27 03:52:51;;;;;;;0.50;0.50;;;12.70;99.90;;;;;;5072813;28;20036;-64
2022/07/27 03:55:18;;;;;;;2.22;0.60;;;12.80;99.90;;;;;;5074225;28;20119;-64
2022/07/27 03:57:45;;;;;;;1.80;0.93;;;12.70;99.90;;;;;;5074178;28;20036;-64
2022/07/27 04:00:11;;;;;;;1.83;0.80;;;12.80;99.90;;;;;;5074163;28;20079;-64
2022/07/27 04:02:38;;;;;;;0.88;0.60;;;12.70;99.90;;;;;;5074101;28;20044;-64
2022/07/27 04:05:04;;;;;;;1.17;0.90;;;12.70;99.90;;;;;;5074052;28;20163;-64
2022/07/27 04:07:30;;;;;;;1.45;0.88;;;12.80;99.90;;;;;;5073986;28;20036;-64
2022/07/27 04:09:55;;;;;;;3.13;0.60;;;12.80;99.90;;;;;;5073916;28;20078;-64
2022/07/27 04:12:21;;;;;;;0.50;0.50;;;13.50;99.90;;;;;;5072141;28;20389;-64
2022/07/27 04:14:47;;;;;;;0.60;0.40;;;12.90;99.90;;;;;;5073874;28;20037;-64
2022/07/27 04:17:12;;;;;;;1.35;0.75;;;13.10;99.90;;;;;;5055653;28;20041;-64
2022/07/27 04:19:38;;;;;;;1.58;0.63;;;12.90;99.90;;;;;;5073426;28;20492;-64
2022/07/27 04:22:04;;;;;;;1.20;0.65;;;13.00;99.90;;;;;;5073786;28;20094;-64
2022/07/27 04:24:30;;;;;;;2.15;0.50;;;13.00;99.90;;;;;;5073461;28;20036;-64
2022/07/27 04:26:55;;;;;;;0.50;0.50;;;13.00;99.90;;;;;;5073381;28;20483;-64
2022/07/27 04:29:21;;;;;;;1.15;0.68;;;13.00;99.90;;;;;;5073391;28;20044;-64
2022/07/27 04:31:47;;;;;;;1.38;0.85;;;13.00;99.90;;;;;;5073196;28;20044;-64
2022/07/27 04:34:12;;;;;;;4.15;0.60;;;13.10;99.90;;;;;;5073239;28;20450;-64
2022/07/27 04:36:38;;;;;;;1.30;0.55;;;13.10;99.90;;;;;;5073233;28;20063;-64
2022/07/27 04:39:04;;;;;;;1.55;1.20;;;13.10;99.90;;;;;;5073462;28;20024;-64
2022/07/27 04:41:30;;;;;;;0.73;0.60;;;13.20;99.90;;;;;;5072685;28;20075;-64
2022/07/27 04:43:57;;;;;;;0.75;0.68;;;13.20;99.90;;;;;;5073397;28;20132;-64
2022/07/27 04:46:23;;;;;;;2.65;0.70;;;13.20;99.90;;;;;;5073156;28;20407;-64
2022/07/27 04:48:48;;;;;;;0.40;0.40;;;13.30;99.90;;;;;;5073414;28;20032;-64
2022/07/27 04:51:14;;;;;;;1.20;0.60;;;13.20;99.90;;;;;;5073277;28;20036;-64
2022/07/27 04:53:40;;;;;;;5.35;1.13;;;13.40;99.90;;;;;;5073385;28;20130;-64
2022/07/27 04:56:07;;;;;;;1.90;0.63;;;13.40;99.90;;;;;;5073336;28;20522;-64
2022/07/27 04:58:33;;;;;;;3.50;0.98;;;13.40;99.90;;;;;;5073235;28;20672;-64
2022/07/27 05:00:58;;;;;;;2.38;0.90;;;13.40;99.90;;;;;;5072904;28;20076;-64
2022/07/27 05:03:24;;;;;;;1.55;0.70;;;13.40;99.90;;;;;;5072880;28;20089;-64
2022/07/27 05:05:49;;;;;;;1.27;0.75;;;13.50;99.90;;;;;;5073205;28;20056;-64
2022/07/27 05:08:15;;;;;;;1.65;0.70;;;13.60;99.90;;;;;;5073176;28;20130;-64
2022/07/27 05:10:41;;;;;;;1.88;0.75;;;13.80;99.90;;;;;;5072821;28;20048;-65
2022/07/27 05:13:07;;;;;;;2.72;0.70;;;13.60;99.90;;;;;;5072786;28;20051;-64
2022/07/27 05:15:32;;;;;;;1.20;0.68;;;13.70;99.90;;;;;;5073070;28;20036;-64
2022/07/27 05:17:58;;;;;;;1.30;0.80;;;13.80;99.90;;;;;;5073096;28;20044;-64
2022/07/27 05:20:24;;;;;;;1.30;0.73;;;14.00;99.90;;;;;;5072974;28;20040;-64
2022/07/27 05:22:50;;;;;;;4.40;0.85;;;14.10;99.90;;;;;;5071737;28;20054;-64
2022/07/27 05:25:15;;;;;;;0.90;0.50;;;14.40;99.90;;;;;;5072942;28;20037;-64
2022/07/27 05:27:41;;;;;;;2.60;0.90;;;14.80;99.90;;;;;;5072988;28;20391;-64
2022/07/27 05:30:08;;;;;;;1.38;0.80;;;14.50;99.90;;;;;;5072940;28;20032;-64
2022/07/27 05:32:34;;;;;;;1.25;0.82;;;14.40;99.90;;;;;;5072772;28;20381;-64
2022/07/27 05:35:00;;;;;;;3.22;0.70;;;14.40;99.90;;;;;;5072908;28;20090;-64
2022/07/27 05:37:25;;;;;;;1.25;0.63;;;14.40;99.90;;;;;;5072837;28;20079;-64
2022/07/27 05:39:51;;;;;;;5.65;0.90;;;14.40;99.90;;;;;;5071508;28;20066;-64
2022/07/27 05:42:17;;;;;;;2.53;1.00;;;14.50;99.90;;;;;;5072723;28;20040;-64
2022/07/27 05:44:42;;;;;;;1.40;0.50;;;14.40;99.90;;;;;;5072546;28;20496;-64
2022/07/27 05:47:08;;;;;;;1.55;0.80;;;14.40;99.90;;;;;;5072715;28;20043;-64
2022/07/27 05:49:34;;;;;;;0.73;0.57;;;14.50;99.90;;;;;;5072728;28;20412;-64
2022/07/27 05:52:00;;;;;;;1.48;0.50;;;14.50;99.90;;;;;;5072647;28;20124;-64
2022/07/27 05:54:25;;;;;;;2.78;0.77;;;14.40;99.90;;;;;;5075452;28;20399;-64
2022/07/27 05:56:51;;;;;;;2.65;0.93;;;14.50;99.90;;;;;;5076561;28;20127;-64
2022/07/27 05:59:17;;;;;;;4.25;0.90;;;14.60;99.90;;;;;;5076370;28;20028;-64
2022/07/27 06:01:43;;;;;;;3.78;0.95;;;14.50;99.90;;;;;;5076091;28;20043;-63
2022/07/27 06:04:08;;;;;;;1.80;0.85;;;14.60;99.90;;;;;;5075072;28;20120;-63
2022/07/27 06:09:18;;;;;;;0.93;0.60;;;14.50;99.90;;;;;;5076238;28;20463;-64
2022/07/27 06:11:44;;;;;;;1.10;0.75;;;14.50;99.90;;;;;;5075512;28;20127;-64
2022/07/27 06:14:09;;;;;;;2.17;0.90;;;14.50;99.90;;;;;;5076114;28;20090;-63
2022/07/27 06:16:35;;;;;;;0.98;0.52;;;14.50;99.90;;;;;;5075728;28;20039;-64
2022/07/27 06:19:01;;;;;;;0.95;0.70;;;14.50;99.90;;;;;;5076028;28;20045;-64
2022/07/27 06:21:27;;;;;;;1.95;0.60;;;14.50;99.90;;;;;;5075601;28;20044;-63
2022/07/27 06:23:56;;;;;;;0.60;0.60;;;14.50;99.90;;;;;;5075652;28;20087;-63
2022/07/27 06:26:22;;;;;;;1.88;0.60;;;14.50;99.90;;;;;;5075888;28;20067;-63
2022/07/27 06:28:48;;;;;;;1.45;0.55;;;14.50;99.90;;;;;;5075634;28;20043;-64
2022/07/27 06:31:14;;;;;;;1.17;0.82;;;14.70;99.90;;;;;;5075812;28;20120;-64
2022/07/27 06:33:40;;;;;;;3.03;0.60;;;14.40;99.90;;;;;;5074273;28;20045;-63
2022/07/27 06:36:07;;;;;;;1.65;0.68;;;14.40;99.90;;;;;;5075840;28;20068;-63
2022/07/27 06:38:33;;;;;;;0.80;0.50;;;14.30;99.90;;;;;;5075768;28;20499;-64
2022/07/27 06:41:00;;;;;;;0.75;0.43;;;14.20;99.90;;;;;;5075470;28;20139;-64
2022/07/27 06:43:29;;;;;;;1.77;0.60;;;14.20;99.90;;;;;;5074554;28;20041;-64
2022/07/27 06:45:57;;;;;;;0.63;0.57;;;14.10;99.90;;;;;;5075639;28;20535;-64
2022/07/27 06:48:23;;;;;;;0.57;0.52;;;14.20;99.90;;;;;;5075567;28;20111;-64
2022/07/27 06:50:49;;;;;;;1.80;0.50;;;14.30;99.90;;;;;;5075173;28;20473;-64
2022/07/27 06:53:15;;;;;;;1.33;0.90;;;14.40;99.90;;;;;;5075156;28;20484;-64
2022/07/27 06:55:41;;;;;;;0.40;0.40;;;14.50;99.90;;;;;;5075525;28;20067;-65
2022/07/27 06:58:07;;;;;;;2.60;0.63;;;14.60;99.90;;;;;;5073952;28;20457;-64
2022/07/27 07:00:32;;;;;;;1.13;0.65;;;14.70;99.90;;;;;;5075350;28;20048;-64
2022/07/27 07:03:04;;;;;;;5.03;0.85;;;14.70;99.90;;;;;;5075059;28;20033;-64
2022/07/27 07:05:31;;;;;;;1.45;0.55;;;14.90;99.90;;;;;;5074566;28;20048;-65
2022/07/27 07:07:57;;;;;;;0.98;0.60;;;15.10;99.90;;;;;;5074886;28;20044;-65
2022/07/27 07:10:24;;;;;;;0.43;0.40;;;15.20;99.90;;;;;;5075112;28;20063;-65
2022/07/27 07:12:54;;;;;;;1.05;0.57;;;15.30;99.90;;;;;;5073450;28;20071;-64
2022/07/27 07:15:25;;;;;;;2.42;0.88;;;15.50;99.90;;;;;;5075125;28;20044;-64
2022/07/27 07:17:51;;;;;;;1.48;0.60;;;15.60;99.90;;;;;;5075038;28;20040;-64
2022/07/27 07:20:17;;;;;;;2.47;0.65;;;15.70;99.90;;;;;;5075014;28;20036;-65
2022/07/27 07:22:43;;;;;;;2.15;0.93;;;15.80;99.90;;;;;;5074946;28;20044;-64
2022/07/27 07:25:08;;;;;;;2.17;0.63;;;15.90;99.90;;;;;;5073650;28;20036;-65
2022/07/27 07:27:34;;;;;;;1.15;0.63;;;16.00;99.90;;;;;;5074879;28;20037;-64
2022/07/27 07:30:00;;;;;;;0.40;0.40;;;16.00;99.90;;;;;;5074836;28;20042;-65
2022/07/27 07:32:26;;;;;;;1.00;0.60;;;16.00;99.90;;;;;;5073224;28;20124;-64
2022/07/27 07:34:52;;;;;;;1.15;0.60;;;16.00;99.90;;;;;;5107024;28;20485;-64
2022/07/27 07:37:18;;;;;;;2.83;0.77;;;15.90;99.90;;;;;;5074585;28;20032;-64
2022/07/27 07:39:45;;;;;;;0.88;0.57;;;16.00;99.90;;;;;;5074333;28;20039;-64
2022/07/27 07:42:11;;;;;;;1.05;0.60;;;16.10;99.90;;;;;;5074569;28;20079;-64
2022/07/27 07:44:37;;;;;;;3.33;0.70;;;16.40;99.90;;;;;;5074173;28;20048;-64
2022/07/27 07:47:03;;;;;;;1.85;0.68;;;16.50;99.90;;;;;;5074427;28;20032;-64
2022/07/27 07:49:29;;;;;;;1.85;0.70;;;16.70;99.90;;;;;;5074367;28;20037;-64
2022/07/27 07:51:54;;;;;;;0.38;0.38;;;16.80;99.90;;;;;;5074199;28;20040;-64
2022/07/27 07:54:20;;;;;;;0.63;0.50;;;16.90;99.90;;;;;;5073958;28;20041;-64
2022/07/27 07:56:46;;;;;;;0.82;0.50;;;17.10;99.90;;;;;;5074350;28;20036;-64
2022/07/27 07:59:11;;;;;;;1.48;0.65;;;17.10;99.90;;;;;;5073995;28;20046;-64
2022/07/27 08:01:37;;;;;;;0.60;0.50;;;17.10;99.90;;;;;;5072849;28;20056;-64
2022/07/27 08:04:03;;;;;;;1.45;0.60;;;17.20;99.90;;;;;;5074102;28;20082;-64
2022/07/27 08:06:29;;;;;;;0.82;0.50;;;17.30;99.90;;;;;;5074030;28;20066;-64
2022/07/27 08:08:54;;;;;;;1.88;0.65;;;17.40;99.90;;;;;;5073726;28;20043;-64
2022/07/27 08:11:21;;;;;;;6.68;0.65;;;17.50;99.90;;;;;;5072119;28;20462;-64
2022/07/27 08:13:47;;;;;;;3.00;0.52;;;17.60;99.90;;;;;;5073460;28;20086;-64
2022/07/27 08:16:13;;;;;;;0.70;0.50;;;17.80;99.90;;;;;;5073153;28;20036;-64
2022/07/27 08:18:38;;;;;;;0.43;0.40;;;18.00;99.90;;;;;;5073778;28;20503;-65
2022/07/27 08:21:04;;;;;;;0.40;0.40;;;18.10;99.90;;;;;;5073796;28;20045;-64
2022/07/27 08:23:32;;;;;;;0.77;0.50;;;18.30;99.90;;;;;;5072203;28;20036;-64
2022/07/27 08:25:58;;;;;;;0.40;0.32;;;18.60;99.90;;;;;;5073391;28;20061;-63
2022/07/27 08:28:24;;;;;;;1.30;0.63;;;18.60;99.90;;;;;;5073648;28;20044;-64
2022/07/27 08:30:50;;;;;;;1.20;0.50;;;18.40;99.90;;;;;;5073521;28;20047;-64
2022/07/27 08:33:16;;;;;;;1.23;0.68;;;18.20;99.90;;;;;;5073274;28;20037;-64
2022/07/27 08:35:41;;;;;;;0.93;0.52;;;17.90;99.90;;;;;;5073267;28;20376;-64
2022/07/27 08:38:11;;;;;;;1.88;0.77;;;17.60;99.90;;;;;;5073528;28;20047;-63
2022/07/27 08:40:38;;;;;;;1.17;0.57;;;17.10;99.90;;;;;;5073426;28;20094;-63
2022/07/27 08:43:05;;;;;;;0.55;0.50;;;16.80;99.90;;;;;;5073127;28;20072;-63
2022/07/27 08:45:32;;;;;;;2.85;0.80;;;16.50;99.90;;;;;;5073427;28;20032;-63
2022/07/27 08:47:58;;;;;;;0.80;0.45;;;16.30;99.90;;;;;;5073395;28;20037;-64
2022/07/27 08:50:25;;;;;;;1.27;0.47;;;16.10;99.90;;;;;;5072948;28;20047;-64
2022/07/27 08:52:55;;;;;;;0.68;0.60;;;15.90;99.90;;;;;;5073010;28;20048;-64
2022/07/27 08:55:22;;;;;;;1.92;0.68;;;15.80;99.90;;;;;;5073282;28;20041;-64
2022/07/27 08:57:48;;;;;;;0.90;0.50;;;15.70;99.90;;;;;;5073199;28;20116;-64
2022/07/27 09:00:15;;;;;;;0.85;0.52;;;15.60;99.90;;;;;;5073246;28;20036;-64
2022/07/27 09:02:42;;;;;;;1.80;0.70;;;15.60;99.90;;;;;;5072923;28;20044;-64
2022/07/27 09:05:09;;;;;;;4.10;0.90;;;15.60;99.90;;;;;;5073150;28;20048;-64
2022/07/27 09:07:35;;;;;;;1.13;0.60;;;15.90;99.90;;;;;;5073178;28;20109;-64
2022/07/27 09:10:01;;;;;;;1.40;0.90;;;15.60;99.90;;;;;;5072779;28;20040;-64
2022/07/27 09:12:28;;;;;;;1.23;0.68;;;15.70;99.90;;;;;;5072648;28;20057;-64
2022/07/27 09:15:13;;;;;;;1.73;0.93;;;15.80;99.90;;;;;;5073094;28;20487;-64
2022/07/27 09:17:41;;;;;;;2.22;0.82;;;15.90;99.90;;;;;;5054799;28;20086;-64
2022/07/27 09:20:15;;;;;;;0.90;0.70;;;16.00;99.90;;;;;;5072785;28;20036;-64
2022/07/27 09:22:53;;;;;;;1.38;0.60;;;16.20;99.90;;;;;;5073064;28;20076;-64
2022/07/27 09:25:21;;;;;;;0.30;0.30;;;16.30;99.90;;;;;;5072767;28;20399;-64
2022/07/27 09:27:48;;;;;;;0.98;0.60;;;16.50;99.90;;;;;;5073785;28;20040;-64
2022/07/27 09:30:20;;;;;;;0.82;0.68;;;16.70;99.90;;;;;;5077068;28;20045;-64
2022/07/27 09:33:00;;;;;;;2.15;0.93;;;17.10;99.90;;;;;;5076961;28;20044;-64
2022/07/27 09:35:34;;;;;;;1.50;0.60;;;17.20;99.90;;;;;;5077278;28;20044;-64
2022/07/27 09:38:19;;;;;;;1.20;0.60;;;17.50;99.90;;;;;;5076946;28;20123;-64
2022/07/27 09:40:47;;;;;;;0.45;0.45;;;17.60;99.90;;;;;;5076914;28;20040;-64
2022/07/27 09:43:13;;;;;;;2.78;0.50;;;17.60;99.90;;;;;;5076823;28;20040;-64
2022/07/27 09:45:42;;;;;;;0.93;0.50;;;17.60;99.90;;;;;;5075489;28;20526;-64
2022/07/27 09:48:12;;;;;;;0.30;0.30;;;17.60;99.90;;;;;;5076486;28;20070;-64
2022/07/27 09:50:41;;;;;;;4.40;0.40;;;17.60;99.90;;;;;;5076598;28;20044;-64
2022/07/27 09:53:22;;;;;;;0.75;0.50;;;17.70;99.90;;;;;;5076580;28;20365;-64
2022/07/27 09:56:14;;;;;;;0.73;0.57;;;17.70;99.90;;;;;;5075086;28;20056;-64
2022/07/27 09:58:47;;;;;;;2.70;0.60;;;17.90;99.90;;;;;;5074973;28;20044;-64
2022/07/27 10:01:16;;;;;;;0.63;0.30;;;18.00;99.90;;;;;;5074849;28;20134;-64
2022/07/27 10:03:43;;;;;;;4.47;0.57;;;18.10;99.90;;;;;;5075080;28;20488;-64
2022/07/27 10:06:10;;;;;;;1.20;0.55;;;18.20;99.90;;;;;;5076370;28;20040;-64
2022/07/27 10:08:37;;;;;;;1.65;0.63;;;18.40;99.90;;;;;;5074811;28;20082;-64
2022/07/27 10:11:03;;;;;;;1.05;0.68;;;18.50;99.90;;;;;;5074744;28;20044;-64
2022/07/27 10:13:29;;;;;;;0.73;0.40;;;18.60;99.90;;;;;;5076140;28;20044;-64
2022/07/27 10:15:56;;;;;;;3.20;0.60;;;18.60;99.90;;;;;;5076191;28;20112;-65
2022/07/27 10:18:49;;;;;;;1.30;0.60;;;18.70;99.90;;;;;;5076141;28;20043;-65
2022/07/27 10:21:15;;;;;;;0.98;0.50;;;18.80;99.90;;;;;;5075540;28;20044;-65
2022/07/27 10:24:02;;;;;;;0.93;0.75;;;18.90;99.90;;;;;;5074532;28;20051;-64
2022/07/27 10:26:34;;;;;;;0.45;0.45;;;19.00;99.90;;;;;;5076009;28;20430;-64
2022/07/27 10:29:21;;;;;;;0.40;0.32;;;19.10;99.90;;;;;;5075811;28;20408;-64
2022/07/27 10:31:52;;;;;;;0.43;0.32;;;18.90;99.90;;;;;;5075878;28;20052;-64
2022/07/27 10:34:33;;;;;;;1.52;0.70;;;18.90;99.90;;;;;;5074328;28;20059;-65
2022/07/27 10:37:10;;;;;;;1.23;0.52;;;19.00;99.90;;;;;;5075837;28;20115;-64
2022/07/27 10:39:45;;;;;;;1.45;0.50;;;19.00;99.90;;;;;;5074796;28;20392;-64
2022/07/27 10:42:30;;;;;;;0.52;0.43;;;19.10;99.90;;;;;;5075517;28;20491;-64
2022/07/27 10:45:08;;;;;;;2.05;0.60;;;19.20;99.90;;;;;;5074329;28;20040;-65
2022/07/27 10:47:38;;;;;;;0.40;0.40;;;19.40;99.90;;;;;;5074100;28;20083;-64
2022/07/27 10:50:25;;;;;;;1.13;0.50;;;19.40;99.90;;;;;;5075321;28;20040;-64
2022/07/27 10:52:56;;;;;;;0.47;0.40;;;19.50;99.90;;;;;;5075474;28;20777;-65
2022/07/27 10:55:31;;;;;;;0.80;0.40;;;19.40;99.90;;;;;;5075505;28;20149;-64
2022/07/27 10:58:09;;;;;;;1.05;0.60;;;19.30;99.90;;;;;;5075483;28;20090;-64
2022/07/27 11:00:58;;;;;;;1.05;0.50;;;19.20;99.90;;;;;;5073850;28;20075;-64
2022/07/27 11:03:26;;;;;;;0.85;0.50;;;19.10;99.90;;;;;;5075333;28;20132;-64
2022/07/27 11:06:01;;;;;;;0.43;0.43;;;19.00;99.90;;;;;;5075356;28;20048;-64
2022/07/27 11:08:29;;;;;;;1.65;0.50;;;19.00;99.90;;;;;;5075268;28;20556;-64
2022/07/27 11:10:54;;;;;;;0.40;0.40;;;19.10;99.90;;;;;;5074940;28;20092;-65
2022/07/27 11:13:22;;;;;;;0.85;0.50;;;19.10;99.90;;;;;;5074872;28;20517;-64
2022/07/27 11:15:55;;;;;;;2.65;0.65;;;19.20;99.90;;;;;;5075179;28;20124;-65
2022/07/27 11:18:41;;;;;;;3.13;0.50;;;19.10;99.90;;;;;;5075099;28;20036;-64
2022/07/27 11:21:21;;;;;;;0.43;0.30;;;19.40;99.90;;;;;;5075066;28;20525;-64
2022/07/27 11:23:53;;;;;;;0.93;0.70;;;19.60;99.90;;;;;;5073708;28;20051;-64
2022/07/27 11:26:20;;;;;;;0.35;0.35;;;19.50;99.90;;;;;;5074605;28;20118;-65
2022/07/27 11:28:46;;;;;;;0.82;0.40;;;19.40;99.90;;;;;;5074911;28;20435;-64
2022/07/27 11:31:12;;;;;;;2.40;0.63;;;19.30;99.90;;;;;;5073149;28;20051;-64
2022/07/27 11:33:58;;;;;;;1.10;0.50;;;19.30;99.90;;;;;;5074754;28;20036;-64
2022/07/27 11:36:40;;;;;;;0.50;0.30;;;19.20;99.90;;;;;;5073407;28;20174;-64
2022/07/27 11:39:11;;;;;;;0.73;0.40;;;19.30;99.90;;;;;;5074415;28;20044;-64
2022/07/27 11:41:38;;;;;;;0.73;0.43;;;19.50;99.90;;;;;;5074176;28;20041;-64
2022/07/27 11:44:06;;;;;;;1.73;0.40;;;19.70;99.90;;;;;;5074503;28;20082;-64
2022/07/27 11:46:34;;;;;;;0.30;0.30;;;19.80;99.90;;;;;;5074160;28;20094;-64
2022/07/27 11:49:08;;;;;;;0.55;0.40;;;19.90;99.90;;;;;;5073295;28;20044;-64
2022/07/27 11:51:48;;;;;;;1.85;0.55;;;19.80;99.90;;;;;;5073229;28;20049;-64
2022/07/27 11:54:20;;;;;;;0.40;0.40;;;19.70;99.90;;;;;;5072847;28;20051;-64
2022/07/27 11:56:48;;;;;;;3.42;0.70;;;19.80;99.90;;;;;;5074055;28;20373;-64
2022/07/27 11:59:19;;;;;;;0.28;0.28;;;19.70;99.90;;;;;;5074271;28;20060;-64
2022/07/27 12:01:54;;;;;;;0.43;0.32;;;19.70;99.90;;;;;;5072931;28;20036;-64
2022/07/27 12:04:28;;;;;;;0.82;0.40;;;19.60;99.90;;;;;;5073791;28;20055;-64
2022/07/27 12:07:04;;;;;;;0.52;0.22;;;19.60;99.90;;;;;;5074070;28;20048;-64
2022/07/27 12:09:35;;;;;;;0.20;0.20;;;19.50;99.90;;;;;;5072520;28;20115;-64
2022/07/27 12:12:17;;;;;;;0.75;0.40;;;19.50;99.90;;;;;;5073584;28;20098;-64
2022/07/27 12:14:53;;;;;;;2.10;0.52;;;20.00;99.90;;;;;;5072472;28;20134;-64
2022/07/27 12:17:33;;;;;;;0.40;0.40;;;20.40;99.90;;;;;;5073878;28;20040;-64
2022/07/27 12:20:08;;;;;;;1.20;0.32;;;20.60;99.90;;;;;;5073633;28;20040;-64
2022/07/27 12:22:46;;;;;;;1.15;0.50;;;20.60;99.90;;;;;;5073570;28;20045;-64
2022/07/27 12:25:18;;;;;;;2.75;0.40;;;20.60;99.90;;;;;;5073775;28;20395;-64
2022/07/27 12:28:03;;;;;;;1.27;0.38;;;20.50;99.90;;;;;;5073693;28;20075;-64
2022/07/27 12:30:36;;;;;;;0.20;0.20;;;20.10;99.90;;;;;;5073645;28;20048;-64
2022/07/27 12:33:35;;;;;;;2.08;0.30;;;20.10;99.90;;;;;;5073585;28;20041;-64
2022/07/27 12:36:03;;;;;;;0.47;0.30;;;20.00;99.90;;;;;;5073491;28;20035;-64
2022/07/27 12:38:47;;;;;;;1.27;0.30;;;20.10;99.90;;;;;;5073509;28;20045;-64
2022/07/27 12:41:34;;;;;;;0.35;0.30;;;20.10;99.90;;;;;;5073479;28;20041;-64
2022/07/27 12:44:04;;;;;;;0.43;0.30;;;20.10;99.90;;;;;;5073442;28;20066;-64
2022/07/27 12:46:29;;;;;;;0.25;0.25;;;20.00;99.90;;;;;;5073390;28;20032;-64
2022/07/27 12:48:55;;;;;;;1.10;0.40;;;20.20;99.90;;;;;;5073068;28;20044;-64
2022/07/27 12:51:24;;;;;;;0.68;0.20;;;20.40;99.90;;;;;;5073272;28;20093;-64
2022/07/27 12:53:51;;;;;;;0.70;0.40;;;20.40;99.90;;;;;;5073255;28;20036;-64
2022/07/27 12:56:16;;;;;;;2.28;0.40;;;20.40;99.90;;;;;;5073280;28;20044;-64